sensor_id;sensor_type;location;lat;lon;timestamp;temperature;humidity
2867;DHT22;1441;48.886;8.728;2023-02-28T00:01:19;-0.90;78.50
2867;DHT22;1441;48.886;8.728;2023-02-28T00:03:45;-0.90;79.00
2867;DHT22;1441;48.886;8.728;2023-02-28T00:06:10;-1.00;79.50
2867;DHT22;1441;48.886;8.728;2023-02-28T00:08:37;-1.00;80.00
2867;DHT22;1441;48.886;8.728;2023-02-28T00:11:03;-1.00;81.20
2867;DHT22;1441;48.886;8.728;2023-02-28T00:13:30;-0.90;81.40
2867;DHT22;1441;48.886;8.728;2023-02-28T00:16:04;-1.00;82.00
2867;DHT22;1441;48.886;8.728;2023-02-28T00:18:30;-1.10;83.00
2867;DHT22;1441;48.886;8.728;2023-02-28T00:20:56;-1.00;83.40
2867;DHT22;1441;48.886;8.728;2023-02-28T00:23:22;-1.10;83.80
2867;DHT22;1441;48.886;8.728;2023-02-28T00:25:48;-1.10;84.20
2867;DHT22;1441;48.886;8.728;2023-02-28T00:28:13;-1.10;84.60
2867;DHT22;1441;48.886;8.728;2023-02-28T00:30:39;-1.10;84.80
2867;DHT22;1441;48.886;8.728;2023-02-28T00:33:05;-1.20;85.30
2867;DHT22;1441;48.886;8.728;2023-02-28T00:35:30;-1.20;85.70
2867;DHT22;1441;48.886;8.728;2023-02-28T00:37:56;-1.10;85.70
2867;DHT22;1441;48.886;8.728;2023-02-28T00:40:22;-1.10;85.80
2867;DHT22;1441;48.886;8.728;2023-02-28T00:42:47;-1.10;85.90
2867;DHT22;1441;48.886;8.728;2023-02-28T00:45:13;-1.20;86.30
2867;DHT22;1441;48.886;8.728;2023-02-28T00:47:38;-1.20;86.60
2867;DHT22;1441;48.886;8.728;2023-02-28T00:50:04;-1.30;87.10
2867;DHT22;1441;48.886;8.728;2023-02-28T00:52:30;-1.30;87.40
2867;DHT22;1441;48.886;8.728;2023-02-28T00:54:56;-1.30;87.70
2867;DHT22;1441;48.886;8.728;2023-02-28T00:57:21;-1.30;87.70
2867;DHT22;1441;48.886;8.728;2023-02-28T00:59:47;-1.30;87.90
2867;DHT22;1441;48.886;8.728;2023-02-28T01:02:13;-1.30;88.00
2867;DHT22;1441;48.886;8.728;2023-02-28T01:04:38;-1.30;88.10
2867;DHT22;1441;48.886;8.728;2023-02-28T01:07:04;-1.30;88.20
2867;DHT22;1441;48.886;8.728;2023-02-28T01:09:30;-1.30;88.00
2867;DHT22;1441;48.886;8.728;2023-02-28T01:11:55;-1.40;88.20
2867;DHT22;1441;48.886;8.728;2023-02-28T01:14:21;-1.40;88.50
2867;DHT22;1441;48.886;8.728;2023-02-28T01:16:46;-1.40;88.50
2867;DHT22;1441;48.886;8.728;2023-02-28T01:19:12;-1.40;88.70
2867;DHT22;1441;48.886;8.728;2023-02-28T01:21:38;-1.40;88.60
2867;DHT22;1441;48.886;8.728;2023-02-28T01:24:04;-1.40;88.70
2867;DHT22;1441;48.886;8.728;2023-02-28T01:26:30;-1.40;88.90
2867;DHT22;1441;48.886;8.728;2023-02-28T01:28:56;-1.40;88.80
2867;DHT22;1441;48.886;8.728;2023-02-28T01:31:22;-1.40;88.90
2867;DHT22;1441;48.886;8.728;2023-02-28T01:33:48;-1.40;89.10
2867;DHT22;1441;48.886;8.728;2023-02-28T01:36:17;-1.50;89.30
2867;DHT22;1441;48.886;8.728;2023-02-28T01:38:43;-1.50;89.40
2867;DHT22;1441;48.886;8.728;2023-02-28T01:41:25;-1.50;89.50
2867;DHT22;1441;48.886;8.728;2023-02-28T01:44:01;-1.50;89.50
2867;DHT22;1441;48.886;8.728;2023-02-28T01:46:29;-1.50;89.60
2867;DHT22;1441;48.886;8.728;2023-02-28T01:49:16;-1.50;89.60
2867;DHT22;1441;48.886;8.728;2023-02-28T01:51:46;-1.50;89.70
2867;DHT22;1441;48.886;8.728;2023-02-28T01:54:25;-1.50;89.70
2867;DHT22;1441;48.886;8.728;2023-02-28T01:57:18;-1.60;90.10
2867;DHT22;1441;48.886;8.728;2023-02-28T01:59:53;-1.60;90.30
2867;DHT22;1441;48.886;8.728;2023-02-28T02:02:21;-1.60;90.40
2867;DHT22;1441;48.886;8.728;2023-02-28T02:07:34;-1.60;90.70
2867;DHT22;1441;48.886;8.728;2023-02-28T02:10:18;-1.60;90.80
2867;DHT22;1441;48.886;8.728;2023-02-28T02:13:05;-1.70;90.80
2867;DHT22;1441;48.886;8.728;2023-02-28T02:15:46;-1.70;90.90
2867;DHT22;1441;48.886;8.728;2023-02-28T02:18:30;-1.60;90.60
2867;DHT22;1441;48.886;8.728;2023-02-28T02:21:02;-1.60;90.60
2867;DHT22;1441;48.886;8.728;2023-02-28T02:40:22;-1.60;91.50
2867;DHT22;1441;48.886;8.728;2023-02-28T02:42:54;-1.60;91.40
2867;DHT22;1441;48.886;8.728;2023-02-28T02:45:24;-1.60;91.70
2867;DHT22;1441;48.886;8.728;2023-02-28T02:47:50;-1.60;91.60
2867;DHT22;1441;48.886;8.728;2023-02-28T02:50:30;-1.60;91.70
2867;DHT22;1441;48.886;8.728;2023-02-28T02:53:00;-1.60;91.90
2867;DHT22;1441;48.886;8.728;2023-02-28T02:55:28;-1.60;91.70
2867;DHT22;1441;48.886;8.728;2023-02-28T02:57:59;-1.60;91.70
2867;DHT22;1441;48.886;8.728;2023-02-28T03:00:31;-1.60;91.80
2867;DHT22;1441;48.886;8.728;2023-02-28T03:02:58;-1.60;92.00
2867;DHT22;1441;48.886;8.728;2023-02-28T03:05:27;-1.60;92.00
2867;DHT22;1441;48.886;8.728;2023-02-28T03:07:54;-1.60;91.90
2867;DHT22;1441;48.886;8.728;2023-02-28T03:27:17;-1.60;92.70
2867;DHT22;1441;48.886;8.728;2023-02-28T03:29:53;-1.60;92.60
2867;DHT22;1441;48.886;8.728;2023-02-28T03:32:29;-1.60;92.90
2867;DHT22;1441;48.886;8.728;2023-02-28T03:35:11;-1.60;92.60
2867;DHT22;1441;48.886;8.728;2023-02-28T03:37:41;-1.60;92.40
2867;DHT22;1441;48.886;8.728;2023-02-28T03:40:15;-1.60;92.50
2867;DHT22;1441;48.886;8.728;2023-02-28T03:42:45;-1.50;92.50
2867;DHT22;1441;48.886;8.728;2023-02-28T03:47:58;-1.60;92.90
2867;DHT22;1441;48.886;8.728;2023-02-28T03:50:40;-1.70;93.30
2867;DHT22;1441;48.886;8.728;2023-02-28T03:56:15;-1.60;93.20
2867;DHT22;1441;48.886;8.728;2023-02-28T04:01:23;-1.50;92.70
2867;DHT22;1441;48.886;8.728;2023-02-28T04:03:50;-1.40;92.70
2867;DHT22;1441;48.886;8.728;2023-02-28T04:06:19;-1.40;92.50
2867;DHT22;1441;48.886;8.728;2023-02-28T04:08:46;-1.40;92.50
2867;DHT22;1441;48.886;8.728;2023-02-28T04:14:04;-1.40;92.70
2867;DHT22;1441;48.886;8.728;2023-02-28T04:16:32;-1.40;92.60
2867;DHT22;1441;48.886;8.728;2023-02-28T04:18:58;-1.50;92.80
2867;DHT22;1441;48.886;8.728;2023-02-28T04:21:36;-1.40;92.80
2867;DHT22;1441;48.886;8.728;2023-02-28T04:24:03;-1.50;92.90
2867;DHT22;1441;48.886;8.728;2023-02-28T04:26:33;-1.40;93.00
2867;DHT22;1441;48.886;8.728;2023-02-28T04:29:00;-1.40;92.90
2867;DHT22;1441;48.886;8.728;2023-02-28T04:31:26;-1.50;92.80
2867;DHT22;1441;48.886;8.728;2023-02-28T04:33:52;-1.50;93.20
2867;DHT22;1441;48.886;8.728;2023-02-28T04:36:18;-1.50;93.20
2867;DHT22;1441;48.886;8.728;2023-02-28T04:38:44;-1.50;93.30
2867;DHT22;1441;48.886;8.728;2023-02-28T04:41:10;-1.50;93.40
2867;DHT22;1441;48.886;8.728;2023-02-28T04:43:36;-1.50;93.50
2867;DHT22;1441;48.886;8.728;2023-02-28T04:46:03;-1.50;93.70
2867;DHT22;1441;48.886;8.728;2023-02-28T04:48:31;-1.50;93.50
2867;DHT22;1441;48.886;8.728;2023-02-28T04:51:01;-1.50;93.60
2867;DHT22;1441;48.886;8.728;2023-02-28T04:53:28;-1.50;93.60
2867;DHT22;1441;48.886;8.728;2023-02-28T04:55:54;-1.50;93.70
2867;DHT22;1441;48.886;8.728;2023-02-28T04:58:20;-1.60;94.00
2867;DHT22;1441;48.886;8.728;2023-02-28T05:00:51;-1.60;94.50
2867;DHT22;1441;48.886;8.728;2023-02-28T05:03:17;-1.60;94.60
2867;DHT22;1441;48.886;8.728;2023-02-28T05:05:43;-1.70;94.80
2867;DHT22;1441;48.886;8.728;2023-02-28T05:08:09;-1.70;95.40
2867;DHT22;1441;48.886;8.728;2023-02-28T05:10:35;-1.70;95.70
2867;DHT22;1441;48.886;8.728;2023-02-28T05:13:01;-1.80;96.10
2867;DHT22;1441;48.886;8.728;2023-02-28T05:15:26;-1.70;96.10
2867;DHT22;1441;48.886;8.728;2023-02-28T05:17:52;-1.80;96.30
2867;DHT22;1441;48.886;8.728;2023-02-28T05:20:17;-1.70;96.40
2867;DHT22;1441;48.886;8.728;2023-02-28T05:22:43;-1.60;96.40
2867;DHT22;1441;48.886;8.728;2023-02-28T05:25:19;-1.50;96.30
2867;DHT22;1441;48.886;8.728;2023-02-28T05:27:45;-1.50;96.20
2867;DHT22;1441;48.886;8.728;2023-02-28T05:30:11;-1.50;96.30
2867;DHT22;1441;48.886;8.728;2023-02-28T05:32:38;-1.50;96.40
2867;DHT22;1441;48.886;8.728;2023-02-28T05:35:04;-1.40;96.10
2867;DHT22;1441;48.886;8.728;2023-02-28T05:37:30;-1.40;96.20
2867;DHT22;1441;48.886;8.728;2023-02-28T05:39:55;-1.40;96.20
2867;DHT22;1441;48.886;8.728;2023-02-28T05:42:21;-1.40;95.80
2867;DHT22;1441;48.886;8.728;2023-02-28T05:44:47;-1.30;95.70
2867;DHT22;1441;48.886;8.728;2023-02-28T05:47:12;-1.30;95.50
2867;DHT22;1441;48.886;8.728;2023-02-28T05:49:41;-1.30;95.40
2867;DHT22;1441;48.886;8.728;2023-02-28T05:52:06;-1.30;95.20
2867;DHT22;1441;48.886;8.728;2023-02-28T05:54:32;-1.30;95.40
2867;DHT22;1441;48.886;8.728;2023-02-28T05:56:58;-1.20;95.20
2867;DHT22;1441;48.886;8.728;2023-02-28T05:59:23;-1.10;95.40
2867;DHT22;1441;48.886;8.728;2023-02-28T06:01:49;-1.10;94.70
2867;DHT22;1441;48.886;8.728;2023-02-28T06:04:17;-1.10;94.20
2867;DHT22;1441;48.886;8.728;2023-02-28T06:06:45;-1.10;94.00
2867;DHT22;1441;48.886;8.728;2023-02-28T06:09:11;-1.10;93.60
2867;DHT22;1441;48.886;8.728;2023-02-28T06:11:37;-1.10;93.40
2867;DHT22;1441;48.886;8.728;2023-02-28T06:14:03;-1.10;93.80
2867;DHT22;1441;48.886;8.728;2023-02-28T06:16:30;-1.10;93.60
2867;DHT22;1441;48.886;8.728;2023-02-28T06:19:01;-1.10;93.80
2867;DHT22;1441;48.886;8.728;2023-02-28T06:21:28;-1.00;93.60
2867;DHT22;1441;48.886;8.728;2023-02-28T06:23:54;-1.00;93.00
2867;DHT22;1441;48.886;8.728;2023-02-28T06:26:20;-1.00;92.60
2867;DHT22;1441;48.886;8.728;2023-02-28T06:28:46;-1.00;92.40
2867;DHT22;1441;48.886;8.728;2023-02-28T06:31:14;-1.00;92.70
2867;DHT22;1441;48.886;8.728;2023-02-28T06:33:41;-0.90;92.10
2867;DHT22;1441;48.886;8.728;2023-02-28T06:36:09;-1.00;92.20
2867;DHT22;1441;48.886;8.728;2023-02-28T06:38:35;-1.00;92.40
2867;DHT22;1441;48.886;8.728;2023-02-28T06:41:01;-1.10;92.10
2867;DHT22;1441;48.886;8.728;2023-02-28T06:43:29;-1.00;92.40
2867;DHT22;1441;48.886;8.728;2023-02-28T06:45:57;-1.10;92.30
2867;DHT22;1441;48.886;8.728;2023-02-28T06:48:24;-1.00;92.30
2867;DHT22;1441;48.886;8.728;2023-02-28T06:50:50;-1.00;92.00
2867;DHT22;1441;48.886;8.728;2023-02-28T06:53:15;-1.00;92.10
2867;DHT22;1441;48.886;8.728;2023-02-28T06:55:41;-1.00;92.00
2867;DHT22;1441;48.886;8.728;2023-02-28T06:58:07;-1.00;92.30
2867;DHT22;1441;48.886;8.728;2023-02-28T07:00:45;-1.00;92.50
2867;DHT22;1441;48.886;8.728;2023-02-28T07:03:11;-0.90;92.30
2867;DHT22;1441;48.886;8.728;2023-02-28T07:05:38;-0.90;92.00
2867;DHT22;1441;48.886;8.728;2023-02-28T07:08:05;-0.80;92.10
2867;DHT22;1441;48.886;8.728;2023-02-28T07:10:31;-0.80;92.30
2867;DHT22;1441;48.886;8.728;2023-02-28T07:12:58;-0.80;91.70
2867;DHT22;1441;48.886;8.728;2023-02-28T07:15:23;-0.80;91.90
2867;DHT22;1441;48.886;8.728;2023-02-28T07:17:49;-0.70;91.80
2867;DHT22;1441;48.886;8.728;2023-02-28T07:20:15;-0.70;91.50
2867;DHT22;1441;48.886;8.728;2023-02-28T07:22:41;-0.80;91.80
2867;DHT22;1441;48.886;8.728;2023-02-28T07:25:07;-0.70;91.30
2867;DHT22;1441;48.886;8.728;2023-02-28T07:27:33;-0.80;91.50
2867;DHT22;1441;48.886;8.728;2023-02-28T07:30:00;-0.80;91.50
2867;DHT22;1441;48.886;8.728;2023-02-28T07:32:27;-0.80;91.90
2867;DHT22;1441;48.886;8.728;2023-02-28T07:34:53;-0.80;91.30
2867;DHT22;1441;48.886;8.728;2023-02-28T07:37:18;-0.80;91.40
2867;DHT22;1441;48.886;8.728;2023-02-28T07:39:44;-0.80;91.50
2867;DHT22;1441;48.886;8.728;2023-02-28T07:42:10;-0.80;91.50
2867;DHT22;1441;48.886;8.728;2023-02-28T07:44:38;-0.70;91.40
2867;DHT22;1441;48.886;8.728;2023-02-28T07:47:09;-0.70;90.80
2867;DHT22;1441;48.886;8.728;2023-02-28T07:49:36;-0.70;90.90
2867;DHT22;1441;48.886;8.728;2023-02-28T07:52:06;-0.80;90.90
2867;DHT22;1441;48.886;8.728;2023-02-28T07:54:32;-0.80;91.30
2867;DHT22;1441;48.886;8.728;2023-02-28T07:56:57;-0.70;91.10
2867;DHT22;1441;48.886;8.728;2023-02-28T07:59:23;-0.60;90.80
2867;DHT22;1441;48.886;8.728;2023-02-28T08:01:49;-0.70;90.50
2867;DHT22;1441;48.886;8.728;2023-02-28T08:04:16;-0.70;90.20
2867;DHT22;1441;48.886;8.728;2023-02-28T08:06:42;-0.70;90.30
2867;DHT22;1441;48.886;8.728;2023-02-28T08:09:08;-0.70;90.40
2867;DHT22;1441;48.886;8.728;2023-02-28T08:11:33;-0.60;90.40
2867;DHT22;1441;48.886;8.728;2023-02-28T08:13:59;-0.50;90.10
2867;DHT22;1441;48.886;8.728;2023-02-28T08:16:25;-0.30;89.60
2867;DHT22;1441;48.886;8.728;2023-02-28T08:18:53;-0.40;89.10
2867;DHT22;1441;48.886;8.728;2023-02-28T08:21:20;-0.50;89.60
2867;DHT22;1441;48.886;8.728;2023-02-28T08:23:47;-0.40;89.70
2867;DHT22;1441;48.886;8.728;2023-02-28T08:26:13;-0.50;89.40
2867;DHT22;1441;48.886;8.728;2023-02-28T08:28:39;-0.40;89.20
2867;DHT22;1441;48.886;8.728;2023-02-28T08:31:12;-0.30;89.50
2867;DHT22;1441;48.886;8.728;2023-02-28T08:33:40;-0.20;89.00
2867;DHT22;1441;48.886;8.728;2023-02-28T08:36:06;-0.30;88.60
2867;DHT22;1441;48.886;8.728;2023-02-28T08:38:32;-0.40;88.80
2867;DHT22;1441;48.886;8.728;2023-02-28T08:41:06;-0.40;89.00
2867;DHT22;1441;48.886;8.728;2023-02-28T08:43:33;-0.40;89.20
2867;DHT22;1441;48.886;8.728;2023-02-28T08:45:59;-0.40;89.00
2867;DHT22;1441;48.886;8.728;2023-02-28T08:48:26;-0.40;89.20
2867;DHT22;1441;48.886;8.728;2023-02-28T08:51:06;-0.30;88.90
2867;DHT22;1441;48.886;8.728;2023-02-28T08:53:32;-0.30;88.70
2867;DHT22;1441;48.886;8.728;2023-02-28T08:55:59;-0.30;89.00
2867;DHT22;1441;48.886;8.728;2023-02-28T08:58:24;-0.20;88.70
2867;DHT22;1441;48.886;8.728;2023-02-28T09:00:51;-0.20;88.80
2867;DHT22;1441;48.886;8.728;2023-02-28T09:03:16;-0.20;88.70
2867;DHT22;1441;48.886;8.728;2023-02-28T09:06:00;-0.20;88.60
2867;DHT22;1441;48.886;8.728;2023-02-28T09:08:28;0.00;88.50
2867;DHT22;1441;48.886;8.728;2023-02-28T09:10:54;0.10;88.10
2867;DHT22;1441;48.886;8.728;2023-02-28T09:13:22;0.00;87.80
2867;DHT22;1441;48.886;8.728;2023-02-28T09:15:48;0.00;88.10
2867;DHT22;1441;48.886;8.728;2023-02-28T09:18:14;-0.10;88.20
2867;DHT22;1441;48.886;8.728;2023-02-28T09:20:41;-0.10;88.20
2867;DHT22;1441;48.886;8.728;2023-02-28T09:23:07;-0.10;88.40
2867;DHT22;1441;48.886;8.728;2023-02-28T09:25:33;0.10;88.00
2867;DHT22;1441;48.886;8.728;2023-02-28T09:28:01;0.20;87.50
2867;DHT22;1441;48.886;8.728;2023-02-28T09:30:28;0.30;87.10
2867;DHT22;1441;48.886;8.728;2023-02-28T09:32:54;0.40;87.30
2867;DHT22;1441;48.886;8.728;2023-02-28T09:35:21;0.40;86.70
2867;DHT22;1441;48.886;8.728;2023-02-28T09:37:48;0.40;86.30
2867;DHT22;1441;48.886;8.728;2023-02-28T09:40:14;0.50;86.10
2867;DHT22;1441;48.886;8.728;2023-02-28T09:42:45;0.50;86.20
2867;DHT22;1441;48.886;8.728;2023-02-28T09:45:33;0.50;85.70
2867;DHT22;1441;48.886;8.728;2023-02-28T09:48:04;0.60;85.50
2867;DHT22;1441;48.886;8.728;2023-02-28T09:50:48;0.50;85.10
2867;DHT22;1441;48.886;8.728;2023-02-28T09:53:31;0.50;85.20
2867;DHT22;1441;48.886;8.728;2023-02-28T09:56:10;0.50;85.00
2867;DHT22;1441;48.886;8.728;2023-02-28T09:58:48;0.50;84.60
2867;DHT22;1441;48.886;8.728;2023-02-28T10:06:58;0.60;83.90
2867;DHT22;1441;48.886;8.728;2023-02-28T10:09:33;0.80;83.50
2867;DHT22;1441;48.886;8.728;2023-02-28T10:12:04;0.80;83.40
2867;DHT22;1441;48.886;8.728;2023-02-28T10:14:32;0.90;82.50
2867;DHT22;1441;48.886;8.728;2023-02-28T10:17:05;0.80;82.80
2867;DHT22;1441;48.886;8.728;2023-02-28T10:20:00;1.10;82.80
2867;DHT22;1441;48.886;8.728;2023-02-28T10:25:19;0.80;81.90
2867;DHT22;1441;48.886;8.728;2023-02-28T10:27:45;0.70;83.00
2867;DHT22;1441;48.886;8.728;2023-02-28T10:30:12;0.70;83.00
2867;DHT22;1441;48.886;8.728;2023-02-28T10:32:39;0.50;82.50
2867;DHT22;1441;48.886;8.728;2023-02-28T10:37:42;0.50;82.80
2867;DHT22;1441;48.886;8.728;2023-02-28T10:43:05;0.70;82.60
2867;DHT22;1441;48.886;8.728;2023-02-28T10:45:32;0.70;82.60
2867;DHT22;1441;48.886;8.728;2023-02-28T10:56:12;0.90;81.70
2867;DHT22;1441;48.886;8.728;2023-02-28T11:04:00;1.30;81.10
2867;DHT22;1441;48.886;8.728;2023-02-28T11:06:29;1.50;80.70
2867;DHT22;1441;48.886;8.728;2023-02-28T11:08:59;1.40;80.20
2867;DHT22;1441;48.886;8.728;2023-02-28T11:11:28;1.40;80.70
2867;DHT22;1441;48.886;8.728;2023-02-28T11:14:03;1.50;80.50
2867;DHT22;1441;48.886;8.728;2023-02-28T11:16:34;1.80;80.20
2867;DHT22;1441;48.886;8.728;2023-02-28T11:19:04;1.90;79.60
2867;DHT22;1441;48.886;8.728;2023-02-28T11:21:36;1.70;79.30
2867;DHT22;1441;48.886;8.728;2023-02-28T11:24:12;1.70;79.70
2867;DHT22;1441;48.886;8.728;2023-02-28T11:26:45;1.60;79.40
2867;DHT22;1441;48.886;8.728;2023-02-28T11:29:28;1.70;80.00
2867;DHT22;1441;48.886;8.728;2023-02-28T11:32:22;1.80;79.00
2867;DHT22;1441;48.886;8.728;2023-02-28T11:37:34;1.80;78.70
2867;DHT22;1441;48.886;8.728;2023-02-28T11:40:00;1.70;79.00
2867;DHT22;1441;48.886;8.728;2023-02-28T11:55:49;2.10;78.80
2867;DHT22;1441;48.886;8.728;2023-02-28T11:58:54;2.10;78.20
2867;DHT22;1441;48.886;8.728;2023-02-28T12:07:37;2.40;77.80
2867;DHT22;1441;48.886;8.728;2023-02-28T12:10:12;2.50;77.50
2867;DHT22;1441;48.886;8.728;2023-02-28T12:26:44;3.00;74.90
2867;DHT22;1441;48.886;8.728;2023-02-28T12:31:55;3.00;75.10
2867;DHT22;1441;48.886;8.728;2023-02-28T12:34:27;2.90;75.00
2867;DHT22;1441;48.886;8.728;2023-02-28T12:36:56;3.10;75.40
2867;DHT22;1441;48.886;8.728;2023-02-28T12:39:28;3.10;74.70
2867;DHT22;1441;48.886;8.728;2023-02-28T12:41:59;3.20;74.80
2867;DHT22;1441;48.886;8.728;2023-02-28T12:44:32;3.10;74.50
2867;DHT22;1441;48.886;8.728;2023-02-28T12:47:02;3.20;74.40
2867;DHT22;1441;48.886;8.728;2023-02-28T12:52:17;3.50;74.00
2867;DHT22;1441;48.886;8.728;2023-02-28T13:00:04;3.50;73.40
2867;DHT22;1441;48.886;8.728;2023-02-28T13:10:50;4.50;71.80
2867;DHT22;1441;48.886;8.728;2023-02-28T13:13:30;4.60;70.60
2867;DHT22;1441;48.886;8.728;2023-02-28T13:16:09;4.60;71.00
2867;DHT22;1441;48.886;8.728;2023-02-28T13:18:42;4.50;70.70
2867;DHT22;1441;48.886;8.728;2023-02-28T13:21:21;4.40;70.90
2867;DHT22;1441;48.886;8.728;2023-02-28T13:34:31;5.10;70.00
2867;DHT22;1441;48.886;8.728;2023-02-28T13:39:50;5.10;70.30
2867;DHT22;1441;48.886;8.728;2023-02-28T13:52:52;4.80;70.10
2867;DHT22;1441;48.886;8.728;2023-02-28T13:56:07;4.80;70.20
2867;DHT22;1441;48.886;8.728;2023-02-28T13:58:35;5.00;70.20
2867;DHT22;1441;48.886;8.728;2023-02-28T14:04:21;5.50;69.70
2867;DHT22;1441;48.886;8.728;2023-02-28T14:06:52;5.50;68.60
2867;DHT22;1441;48.886;8.728;2023-02-28T14:11:52;5.70;69.00
2867;DHT22;1441;48.886;8.728;2023-02-28T14:17:07;5.90;68.10
2867;DHT22;1441;48.886;8.728;2023-02-28T14:19:37;6.10;68.10
2867;DHT22;1441;48.886;8.728;2023-02-28T14:22:20;6.00;67.80
2867;DHT22;1441;48.886;8.728;2023-02-28T14:25:08;5.80;67.90
2867;DHT22;1441;48.886;8.728;2023-02-28T14:28:27;5.60;68.60
2867;DHT22;1441;48.886;8.728;2023-02-28T14:30:57;5.40;68.80
2867;DHT22;1441;48.886;8.728;2023-02-28T14:33:35;5.40;68.80
2867;DHT22;1441;48.886;8.728;2023-02-28T14:36:17;5.40;68.90
2867;DHT22;1441;48.886;8.728;2023-02-28T14:38:57;5.40;68.90
2867;DHT22;1441;48.886;8.728;2023-02-28T14:41:29;5.40;68.80
2867;DHT22;1441;48.886;8.728;2023-02-28T14:43:58;5.30;69.30
2867;DHT22;1441;48.886;8.728;2023-02-28T14:46:35;5.30;69.60
2867;DHT22;1441;48.886;8.728;2023-02-28T14:49:04;5.40;69.60
2867;DHT22;1441;48.886;8.728;2023-02-28T14:51:30;5.40;69.60
2867;DHT22;1441;48.886;8.728;2023-02-28T14:54:00;5.20;70.10
2867;DHT22;1441;48.886;8.728;2023-02-28T14:56:35;5.20;70.30
2867;DHT22;1441;48.886;8.728;2023-02-28T14:59:01;5.20;70.10
2867;DHT22;1441;48.886;8.728;2023-02-28T15:01:27;5.30;70.30
2867;DHT22;1441;48.886;8.728;2023-02-28T15:04:06;5.50;69.90
2867;DHT22;1441;48.886;8.728;2023-02-28T15:06:33;5.70;70.00
2867;DHT22;1441;48.886;8.728;2023-02-28T15:09:16;5.60;69.10
2867;DHT22;1441;48.886;8.728;2023-02-28T15:11:45;5.60;69.40
2867;DHT22;1441;48.886;8.728;2023-02-28T15:14:18;5.50;69.60
2867;DHT22;1441;48.886;8.728;2023-02-28T15:16:46;5.50;69.60
2867;DHT22;1441;48.886;8.728;2023-02-28T15:19:19;5.50;69.60
2867;DHT22;1441;48.886;8.728;2023-02-28T15:21:49;5.40;69.40
2867;DHT22;1441;48.886;8.728;2023-02-28T15:24:22;5.30;69.50
2867;DHT22;1441;48.886;8.728;2023-02-28T15:26:54;5.20;70.60
2867;DHT22;1441;48.886;8.728;2023-02-28T15:29:23;5.30;71.00
2867;DHT22;1441;48.886;8.728;2023-02-28T15:34:42;5.30;70.50
2867;DHT22;1441;48.886;8.728;2023-02-28T15:39:52;5.20;70.90
2867;DHT22;1441;48.886;8.728;2023-02-28T15:42:20;5.00;71.00
2867;DHT22;1441;48.886;8.728;2023-02-28T15:44:47;5.10;71.20
2867;DHT22;1441;48.886;8.728;2023-02-28T15:47:27;5.10;71.00
2867;DHT22;1441;48.886;8.728;2023-02-28T15:50:00;5.00;71.10
2867;DHT22;1441;48.886;8.728;2023-02-28T15:52:38;5.00;71.30
2867;DHT22;1441;48.886;8.728;2023-02-28T15:57:50;5.10;71.20
2867;DHT22;1441;48.886;8.728;2023-02-28T16:00:20;5.10;71.40
2867;DHT22;1441;48.886;8.728;2023-02-28T16:02:47;5.10;71.30
2867;DHT22;1441;48.886;8.728;2023-02-28T16:05:28;5.00;71.50
2867;DHT22;1441;48.886;8.728;2023-02-28T16:08:17;4.90;71.90
2867;DHT22;1441;48.886;8.728;2023-02-28T16:10:43;4.90;71.90
2867;DHT22;1441;48.886;8.728;2023-02-28T16:13:11;4.80;72.30
2867;DHT22;1441;48.886;8.728;2023-02-28T16:15:43;4.80;72.40
2867;DHT22;1441;48.886;8.728;2023-02-28T16:18:12;4.80;72.40
2867;DHT22;1441;48.886;8.728;2023-02-28T16:20:38;4.70;73.00
2867;DHT22;1441;48.886;8.728;2023-02-28T16:23:04;4.70;72.70
2867;DHT22;1441;48.886;8.728;2023-02-28T16:25:36;4.70;72.90
2867;DHT22;1441;48.886;8.728;2023-02-28T16:28:03;4.70;72.70
2867;DHT22;1441;48.886;8.728;2023-02-28T16:30:29;4.70;72.60
2867;DHT22;1441;48.886;8.728;2023-02-28T16:32:58;4.60;72.80
2867;DHT22;1441;48.886;8.728;2023-02-28T16:35:24;4.60;73.10
2867;DHT22;1441;48.886;8.728;2023-02-28T16:37:53;4.50;72.90
2867;DHT22;1441;48.886;8.728;2023-02-28T16:40:25;4.50;72.70
2867;DHT22;1441;48.886;8.728;2023-02-28T16:42:53;4.40;73.30
2867;DHT22;1441;48.886;8.728;2023-02-28T16:45:25;4.30;73.80
2867;DHT22;1441;48.886;8.728;2023-02-28T16:47:52;4.30;73.40
2867;DHT22;1441;48.886;8.728;2023-02-28T16:50:29;4.30;73.50
2867;DHT22;1441;48.886;8.728;2023-02-28T16:52:56;4.20;73.80
2867;DHT22;1441;48.886;8.728;2023-02-28T16:55:22;4.20;74.10
2867;DHT22;1441;48.886;8.728;2023-02-28T16:58:00;4.10;74.20
2867;DHT22;1441;48.886;8.728;2023-02-28T17:00:27;4.10;74.40
2867;DHT22;1441;48.886;8.728;2023-02-28T17:02:53;4.00;74.80
2867;DHT22;1441;48.886;8.728;2023-02-28T17:05:19;4.00;74.50
2867;DHT22;1441;48.886;8.728;2023-02-28T17:07:45;4.00;74.60
2867;DHT22;1441;48.886;8.728;2023-02-28T17:10:25;3.80;74.90
2867;DHT22;1441;48.886;8.728;2023-02-28T17:12:51;3.90;75.00
2867;DHT22;1441;48.886;8.728;2023-02-28T17:15:19;3.70;75.10
2867;DHT22;1441;48.886;8.728;2023-02-28T17:17:45;3.70;75.30
2867;DHT22;1441;48.886;8.728;2023-02-28T17:20:14;3.60;75.50
2867;DHT22;1441;48.886;8.728;2023-02-28T17:22:40;3.50;76.00
2867;DHT22;1441;48.886;8.728;2023-02-28T17:25:06;3.60;75.80
2867;DHT22;1441;48.886;8.728;2023-02-28T17:27:31;3.60;75.50
2867;DHT22;1441;48.886;8.728;2023-02-28T17:29:57;3.50;75.90
2867;DHT22;1441;48.886;8.728;2023-02-28T17:32:22;3.50;75.70
2867;DHT22;1441;48.886;8.728;2023-02-28T17:34:49;3.40;75.90
2867;DHT22;1441;48.886;8.728;2023-02-28T17:37:14;3.30;76.00
2867;DHT22;1441;48.886;8.728;2023-02-28T17:39:40;3.30;76.00
2867;DHT22;1441;48.886;8.728;2023-02-28T17:42:05;3.30;76.30
2867;DHT22;1441;48.886;8.728;2023-02-28T17:44:31;3.20;76.50
2867;DHT22;1441;48.886;8.728;2023-02-28T17:46:56;3.20;76.50
2867;DHT22;1441;48.886;8.728;2023-02-28T17:49:22;3.20;76.60
2867;DHT22;1441;48.886;8.728;2023-02-28T17:51:48;3.10;76.70
2867;DHT22;1441;48.886;8.728;2023-02-28T17:54:15;3.10;76.80
2867;DHT22;1441;48.886;8.728;2023-02-28T17:56:41;3.10;77.10
2867;DHT22;1441;48.886;8.728;2023-02-28T17:59:10;3.10;77.10
2867;DHT22;1441;48.886;8.728;2023-02-28T18:01:36;3.10;77.00
2867;DHT22;1441;48.886;8.728;2023-02-28T18:04:02;3.00;77.10
2867;DHT22;1441;48.886;8.728;2023-02-28T18:06:44;2.90;77.30
2867;DHT22;1441;48.886;8.728;2023-02-28T18:09:14;2.70;78.10
2867;DHT22;1441;48.886;8.728;2023-02-28T18:11:39;2.50;78.80
2867;DHT22;1441;48.886;8.728;2023-02-28T18:14:10;2.60;78.90
2867;DHT22;1441;48.886;8.728;2023-02-28T18:16:36;2.50;79.20
2867;DHT22;1441;48.886;8.728;2023-02-28T18:19:03;2.50;79.20
2867;DHT22;1441;48.886;8.728;2023-02-28T18:21:29;2.60;79.20
2867;DHT22;1441;48.886;8.728;2023-02-28T18:23:56;2.60;79.00
2867;DHT22;1441;48.886;8.728;2023-02-28T18:26:22;2.50;78.80
2867;DHT22;1441;48.886;8.728;2023-02-28T18:28:48;2.50;79.20
2867;DHT22;1441;48.886;8.728;2023-02-28T18:31:16;2.50;79.20
2867;DHT22;1441;48.886;8.728;2023-02-28T18:33:43;2.60;79.00
2867;DHT22;1441;48.886;8.728;2023-02-28T18:36:09;2.50;79.50
2867;DHT22;1441;48.886;8.728;2023-02-28T18:38:35;2.50;79.40
2867;DHT22;1441;48.886;8.728;2023-02-28T18:41:03;2.60;79.20
2867;DHT22;1441;48.886;8.728;2023-02-28T18:43:30;2.50;79.10
2867;DHT22;1441;48.886;8.728;2023-02-28T18:45:57;2.50;79.40
2867;DHT22;1441;48.886;8.728;2023-02-28T18:48:23;2.50;79.50
2867;DHT22;1441;48.886;8.728;2023-02-28T18:50:51;2.40;79.60
2867;DHT22;1441;48.886;8.728;2023-02-28T18:53:18;2.40;79.90
2867;DHT22;1441;48.886;8.728;2023-02-28T18:55:44;2.50;79.80
2867;DHT22;1441;48.886;8.728;2023-02-28T18:58:10;2.40;79.90
2867;DHT22;1441;48.886;8.728;2023-02-28T19:00:36;2.30;80.10
2867;DHT22;1441;48.886;8.728;2023-02-28T19:03:02;2.20;80.50
2867;DHT22;1441;48.886;8.728;2023-02-28T19:05:28;2.20;80.70
2867;DHT22;1441;48.886;8.728;2023-02-28T19:07:57;2.10;81.00
2867;DHT22;1441;48.886;8.728;2023-02-28T19:10:23;2.10;81.10
2867;DHT22;1441;48.886;8.728;2023-02-28T19:12:49;2.10;81.50
2867;DHT22;1441;48.886;8.728;2023-02-28T19:15:15;2.00;81.50